UAL4746 KMCO-KIAD
Flight info
| Callsign | UAL4746 |
|---|---|
| Flight time | 1h 56m |
| Altitude | 37000 |
| Route | FATHE3 VIYAP Q87 ALWZZ OGRAE BZNGA DORRN CAVLR6 |
| Aircraft | A320/M-SDE3FGHIRWY/LB1 |
Departure
| Time | 2026-04-25 14:31 |
|---|---|
| Airport | Orlando International Airport (KMCO) |
Arrival
| Time | 2026-04-25 16:28 |
|---|---|
| Airport | Washington Dulles International Airport (KIAD) |
| Time | Latitude | Longitude | Altitude | Speed | Heading |
|---|---|---|---|---|---|
| 2026-04-25 13:56 | 28.42564 | -81.30096 | 103 ft | 0 kts | 55° |
| 2026-04-25 14:15 | 28.42553 | -81.30113 | 102 ft | 2 kts | 55° |
| 2026-04-25 14:15 | 28.42544 | -81.30129 | 101 ft | 2 kts | 55° |
| 2026-04-25 14:16 | 28.42534 | -81.30145 | 102 ft | 2 kts | 55° |
| 2026-04-25 14:16 | 28.42524 | -81.30161 | 102 ft | 2 kts | 55° |
| 2026-04-25 14:16 | 28.42514 | -81.30177 | 102 ft | 2 kts | 55° |
| 2026-04-25 14:16 | 28.42505 | -81.30193 | 103 ft | 2 kts | 55° |
| 2026-04-25 14:17 | 28.42497 | -81.30211 | 103 ft | 3 kts | 88° |
| 2026-04-25 14:17 | 28.42499 | -81.30230 | 102 ft | 1 kts | 108° |
| 2026-04-25 14:20 | 28.42498 | -81.30228 | 102 ft | 1 kts | 108° |
| 2026-04-25 14:20 | 28.42470 | -81.30164 | 103 ft | 4 kts | 127° |
| 2026-04-25 14:20 | 28.42438 | -81.30138 | 103 ft | 6 kts | 157° |
| 2026-04-25 14:21 | 28.42425 | -81.30136 | 102 ft | 0 kts | 176° |
| 2026-04-25 14:23 | 28.42400 | -81.30134 | 103 ft | 12 kts | 174° |
| 2026-04-25 14:23 | 28.42361 | -81.30045 | 103 ft | 15 kts | 89° |
| 2026-04-25 14:23 | 28.42362 | -81.29930 | 103 ft | 14 kts | 90° |
| 2026-04-25 14:23 | 28.42373 | -81.29831 | 101 ft | 13 kts | 57° |
| 2026-04-25 14:24 | 28.42456 | -81.29794 | 102 ft | 14 kts | 359° |
| 2026-04-25 14:24 | 28.42558 | -81.29794 | 103 ft | 15 kts | 0° |
| 2026-04-25 14:24 | 28.42669 | -81.29796 | 103 ft | 17 kts | 359° |
| 2026-04-25 14:24 | 28.42786 | -81.29797 | 103 ft | 16 kts | 359° |
| 2026-04-25 14:25 | 28.42906 | -81.29797 | 103 ft | 18 kts | 1° |
| 2026-04-25 14:25 | 28.43026 | -81.29799 | 103 ft | 15 kts | 359° |
| 2026-04-25 14:25 | 28.43135 | -81.29801 | 103 ft | 16 kts | 360° |
| 2026-04-25 14:25 | 28.43161 | -81.29801 | 103 ft | 4 kts | 360° |
| 2026-04-25 14:26 | 28.43163 | -81.29801 | 103 ft | 2 kts | 359° |
| 2026-04-25 14:26 | 28.43188 | -81.29802 | 103 ft | 5 kts | 359° |
| 2026-04-25 14:26 | 28.43226 | -81.29802 | 103 ft | 7 kts | 360° |
| 2026-04-25 14:27 | 28.43263 | -81.29802 | 103 ft | 0 kts | 360° |
| 2026-04-25 14:27 | 28.43266 | -81.29802 | 103 ft | 0 kts | 0° |
| 2026-04-25 14:28 | 28.43274 | -81.29802 | 103 ft | 3 kts | 360° |
| 2026-04-25 14:28 | 28.43326 | -81.29803 | 103 ft | 0 kts | 358° |
| 2026-04-25 14:28 | 28.43336 | -81.29803 | 103 ft | 2 kts | 359° |
| 2026-04-25 14:28 | 28.43366 | -81.29804 | 103 ft | 8 kts | 358° |
| 2026-04-25 14:29 | 28.43429 | -81.29796 | 104 ft | 9 kts | 27° |
| 2026-04-25 14:29 | 28.43440 | -81.29732 | 104 ft | 9 kts | 90° |
| 2026-04-25 14:29 | 28.43440 | -81.29711 | 105 ft | 0 kts | 89° |
| 2026-04-25 14:29 | 28.43440 | -81.29708 | 105 ft | 3 kts | 90° |
| 2026-04-25 14:30 | 28.43440 | -81.29616 | 106 ft | 14 kts | 98° |
| 2026-04-25 14:30 | 28.43382 | -81.29584 | 107 ft | 0 kts | 187° |
| 2026-04-25 14:30 | 28.43380 | -81.29584 | 107 ft | 1 kts | 187° |
| 2026-04-25 14:31 | 28.43358 | -81.29586 | 107 ft | 17 kts | 182° |
| 2026-04-25 14:31 | 28.42927 | -81.29580 | 106 ft | 104 kts | 180° |
| 2026-04-25 14:31 | 28.41969 | -81.29572 | 122 ft | 166 kts | 179° |
| 2026-04-25 14:31 | 28.40775 | -81.29570 | 738 ft | 177 kts | 180° |
| 2026-04-25 14:32 | 28.39514 | -81.29582 | 1635 ft | 182 kts | 181° |
| 2026-04-25 14:32 | 28.38267 | -81.29536 | 2398 ft | 181 kts | 173° |
| 2026-04-25 14:32 | 28.37020 | -81.29212 | 2888 ft | 190 kts | 161° |
| 2026-04-25 14:32 | 28.35781 | -81.28542 | 3232 ft | 206 kts | 148° |
| 2026-04-25 14:33 | 28.34581 | -81.27530 | 3545 ft | 224 kts | 139° |
| 2026-04-25 14:33 | 28.33517 | -81.26138 | 3897 ft | 243 kts | 116° |
| 2026-04-25 14:33 | 28.33147 | -81.24237 | 4383 ft | 259 kts | 89° |
| 2026-04-25 14:33 | 28.33287 | -81.22144 | 5001 ft | 271 kts | 83° |
| 2026-04-25 14:34 | 28.33505 | -81.20000 | 5825 ft | 275 kts | 83° |
| 2026-04-25 14:34 | 28.33736 | -81.17836 | 6654 ft | 278 kts | 82° |
| 2026-04-25 14:34 | 28.34295 | -81.15756 | 7375 ft | 283 kts | 59° |
| 2026-04-25 14:34 | 28.35592 | -81.14048 | 8134 ft | 285 kts | 34° |
| 2026-04-25 14:35 | 28.37359 | -81.13141 | 8889 ft | 285 kts | 9° |
| 2026-04-25 14:35 | 28.39332 | -81.13161 | 9683 ft | 286 kts | 345° |
| 2026-04-25 14:35 | 28.41245 | -81.13813 | 10331 ft | 294 kts | 341° |
| 2026-04-25 14:35 | 28.43271 | -81.14530 | 10500 ft | 317 kts | 341° |
| 2026-04-25 14:36 | 28.45433 | -81.15291 | 10946 ft | 329 kts | 341° |
| 2026-04-25 14:36 | 28.47637 | -81.16062 | 11580 ft | 333 kts | 341° |
| 2026-04-25 14:36 | 28.49862 | -81.16839 | 12266 ft | 336 kts | 342° |
| 2026-04-25 14:36 | 28.52104 | -81.17620 | 12947 ft | 339 kts | 342° |
| 2026-04-25 14:37 | 28.54371 | -81.18411 | 13627 ft | 341 kts | 342° |
| 2026-04-25 14:37 | 28.56618 | -81.19194 | 14244 ft | 344 kts | 341° |
| 2026-04-25 14:37 | 28.58914 | -81.19995 | 14819 ft | 347 kts | 341° |
| 2026-04-25 14:37 | 28.61233 | -81.20808 | 15382 ft | 350 kts | 341° |
| 2026-04-25 14:38 | 28.63571 | -81.21628 | 15845 ft | 354 kts | 341° |
| 2026-04-25 14:38 | 28.65925 | -81.22454 | 15956 ft | 354 kts | 341° |
| 2026-04-25 14:38 | 28.68279 | -81.23278 | 15985 ft | 354 kts | 341° |
| 2026-04-25 14:38 | 28.70631 | -81.24103 | 15989 ft | 354 kts | 341° |
| 2026-04-25 14:39 | 28.72984 | -81.24931 | 15986 ft | 354 kts | 341° |
| 2026-04-25 14:39 | 28.75329 | -81.25757 | 15987 ft | 353 kts | 341° |
| 2026-04-25 14:39 | 28.77650 | -81.26575 | 15986 ft | 353 kts | 341° |
| 2026-04-25 14:39 | 28.80027 | -81.27411 | 15989 ft | 353 kts | 341° |
| 2026-04-25 14:40 | 28.82345 | -81.28224 | 15987 ft | 353 kts | 341° |
| 2026-04-25 14:40 | 28.84730 | -81.28871 | 15988 ft | 355 kts | 351° |
| 2026-04-25 14:40 | 28.87217 | -81.29093 | 16454 ft | 359 kts | 354° |
| 2026-04-25 14:40 | 28.89717 | -81.29296 | 17058 ft | 362 kts | 353° |
| 2026-04-25 14:41 | 28.92237 | -81.29516 | 17648 ft | 365 kts | 353° |
| 2026-04-25 14:41 | 28.94783 | -81.29742 | 18218 ft | 369 kts | 353° |
| 2026-04-25 14:41 | 28.97359 | -81.29969 | 18736 ft | 373 kts | 353° |
| 2026-04-25 14:41 | 28.99953 | -81.30199 | 19278 ft | 375 kts | 353° |
| 2026-04-25 14:42 | 29.02560 | -81.30464 | 19839 ft | 377 kts | 352° |
| 2026-04-25 14:42 | 29.03412 | -81.30557 | 20019 ft | 378 kts | 352° |
| 2026-04-25 14:42 | 29.07783 | -81.31058 | 20934 ft | 382 kts | 352° |
| 2026-04-25 14:42 | 29.10438 | -81.31365 | 21468 ft | 385 kts | 352° |
| 2026-04-25 14:43 | 29.13114 | -81.31625 | 21997 ft | 387 kts | 354° |
| 2026-04-25 14:43 | 29.15815 | -81.31811 | 22508 ft | 390 kts | 355° |
| 2026-04-25 14:43 | 29.18539 | -81.31955 | 23007 ft | 393 kts | 356° |
| 2026-04-25 14:43 | 29.21276 | -81.32085 | 23498 ft | 396 kts | 356° |
| 2026-04-25 14:44 | 29.24039 | -81.32220 | 23912 ft | 398 kts | 356° |
| 2026-04-25 14:44 | 29.26779 | -81.32365 | 24290 ft | 401 kts | 355° |
| 2026-04-25 14:44 | 29.29570 | -81.32526 | 24680 ft | 403 kts | 355° |
| 2026-04-25 14:44 | 29.32378 | -81.32699 | 25075 ft | 405 kts | 355° |
| 2026-04-25 14:45 | 29.35204 | -81.32876 | 25467 ft | 408 kts | 355° |
| 2026-04-25 14:45 | 29.38036 | -81.33055 | 25853 ft | 410 kts | 356° |
| 2026-04-25 14:45 | 29.40892 | -81.33231 | 26213 ft | 412 kts | 356° |
| 2026-04-25 14:45 | 29.43763 | -81.33403 | 26575 ft | 414 kts | 356° |
| 2026-04-25 14:46 | 29.45667 | -81.33516 | 26810 ft | 415 kts | 356° |
| 2026-04-25 14:46 | 29.48566 | -81.33685 | 27167 ft | 418 kts | 356° |
| 2026-04-25 14:46 | 29.51479 | -81.33855 | 27519 ft | 420 kts | 356° |
| 2026-04-25 14:46 | 29.55357 | -81.34087 | 27986 ft | 423 kts | 356° |
| 2026-04-25 14:47 | 29.58299 | -81.34267 | 28340 ft | 425 kts | 356° |
| 2026-04-25 14:47 | 29.59299 | -81.34328 | 28452 ft | 426 kts | 356° |
| 2026-04-25 14:47 | 29.63226 | -81.34566 | 28916 ft | 428 kts | 357° |
| 2026-04-25 14:47 | 29.66209 | -81.34747 | 29255 ft | 430 kts | 357° |
| 2026-04-25 14:48 | 29.69206 | -81.34924 | 29586 ft | 432 kts | 357° |
| 2026-04-25 14:48 | 29.72222 | -81.35095 | 29919 ft | 434 kts | 357° |
| 2026-04-25 14:48 | 29.75242 | -81.35262 | 30266 ft | 435 kts | 357° |
| 2026-04-25 14:48 | 29.78259 | -81.35428 | 30676 ft | 434 kts | 357° |
| 2026-04-25 14:49 | 29.81273 | -81.35597 | 31071 ft | 433 kts | 357° |
| 2026-04-25 14:49 | 29.84279 | -81.35766 | 31463 ft | 432 kts | 357° |
| 2026-04-25 14:49 | 29.87279 | -81.35941 | 31842 ft | 432 kts | 357° |
| 2026-04-25 14:49 | 29.90277 | -81.36117 | 32241 ft | 431 kts | 357° |
| 2026-04-25 14:50 | 29.93270 | -81.36291 | 32634 ft | 430 kts | 357° |
| 2026-04-25 14:50 | 29.96217 | -81.36461 | 33022 ft | 430 kts | 356° |
| 2026-04-25 14:50 | 29.99203 | -81.36634 | 33420 ft | 429 kts | 356° |
| 2026-04-25 14:50 | 30.02179 | -81.36804 | 33816 ft | 429 kts | 356° |
| 2026-04-25 14:51 | 30.05159 | -81.36972 | 34183 ft | 428 kts | 356° |
| 2026-04-25 14:51 | 30.08130 | -81.37141 | 34526 ft | 427 kts | 356° |
| 2026-04-25 14:51 | 30.11096 | -81.37311 | 34861 ft | 425 kts | 356° |
| 2026-04-25 14:51 | 30.14043 | -81.37484 | 35191 ft | 424 kts | 356° |
| 2026-04-25 14:52 | 30.16982 | -81.37661 | 35515 ft | 422 kts | 356° |
| 2026-04-25 14:52 | 30.19916 | -81.37838 | 35837 ft | 421 kts | 356° |
| 2026-04-25 14:52 | 30.22832 | -81.38010 | 36155 ft | 420 kts | 356° |
| 2026-04-25 14:52 | 30.24765 | -81.38121 | 36362 ft | 419 kts | 356° |
| 2026-04-25 14:53 | 30.28612 | -81.38340 | 36760 ft | 417 kts | 356° |
| 2026-04-25 14:53 | 30.31510 | -81.38504 | 36937 ft | 417 kts | 356° |
| 2026-04-25 14:53 | 30.37351 | -81.38838 | 36974 ft | 422 kts | 356° |
| 2026-04-25 14:54 | 30.43223 | -81.39180 | 36965 ft | 423 kts | 356° |
| 2026-04-25 14:54 | 30.49104 | -81.39520 | 36966 ft | 423 kts | 356° |
| 2026-04-25 14:55 | 30.54985 | -81.39828 | 36991 ft | 423 kts | 356° |
| 2026-04-25 14:55 | 30.60866 | -81.40131 | 36993 ft | 423 kts | 356° |
| 2026-04-25 14:56 | 30.66713 | -81.40438 | 36997 ft | 424 kts | 356° |
| 2026-04-25 14:56 | 30.72604 | -81.40747 | 36998 ft | 424 kts | 356° |
| 2026-04-25 14:57 | 30.78491 | -81.41060 | 36996 ft | 424 kts | 356° |
| 2026-04-25 14:57 | 30.84381 | -81.41378 | 37000 ft | 424 kts | 356° |
| 2026-04-25 14:58 | 30.90243 | -81.41691 | 36990 ft | 424 kts | 356° |
| 2026-04-25 14:58 | 30.96145 | -81.42007 | 36980 ft | 424 kts | 356° |
| 2026-04-25 14:59 | 31.02040 | -81.42318 | 36979 ft | 424 kts | 356° |
| 2026-04-25 14:59 | 31.07933 | -81.42630 | 36975 ft | 424 kts | 356° |
| 2026-04-25 15:00 | 31.13801 | -81.42938 | 36973 ft | 425 kts | 356° |
| 2026-04-25 15:00 | 31.19703 | -81.43260 | 36981 ft | 425 kts | 356° |
| 2026-04-25 15:01 | 31.25607 | -81.42861 | 36989 ft | 428 kts | 12° |
| 2026-04-25 15:01 | 31.31164 | -81.40337 | 36982 ft | 431 kts | 23° |
| 2026-04-25 15:02 | 31.36606 | -81.37393 | 36983 ft | 431 kts | 22° |
| 2026-04-25 15:02 | 31.42052 | -81.34452 | 36978 ft | 431 kts | 22° |
| 2026-04-25 15:03 | 31.47497 | -81.31492 | 36971 ft | 431 kts | 23° |
| 2026-04-25 15:03 | 31.52904 | -81.28548 | 36973 ft | 431 kts | 22° |
| 2026-04-25 15:04 | 31.58348 | -81.25589 | 36985 ft | 431 kts | 22° |
| 2026-04-25 15:04 | 31.63786 | -81.22629 | 36974 ft | 431 kts | 22° |
| 2026-04-25 15:05 | 31.69217 | -81.19656 | 36960 ft | 431 kts | 23° |
| 2026-04-25 15:06 | 31.77321 | -81.15219 | 36951 ft | 430 kts | 22° |
| 2026-04-25 15:06 | 31.82744 | -81.12254 | 36943 ft | 430 kts | 23° |
| 2026-04-25 15:07 | 31.88171 | -81.09284 | 36939 ft | 430 kts | 23° |
| 2026-04-25 15:07 | 31.93589 | -81.06310 | 36941 ft | 430 kts | 23° |
| 2026-04-25 15:08 | 31.99003 | -81.03323 | 36942 ft | 430 kts | 23° |
| 2026-04-25 15:08 | 32.04374 | -81.00348 | 36941 ft | 430 kts | 23° |
| 2026-04-25 15:09 | 32.09783 | -80.97316 | 36945 ft | 430 kts | 23° |
| 2026-04-25 15:09 | 32.17898 | -80.92762 | 36974 ft | 431 kts | 23° |
| 2026-04-25 15:10 | 32.23311 | -80.89722 | 36979 ft | 431 kts | 23° |
| 2026-04-25 15:11 | 32.31403 | -80.85179 | 36983 ft | 431 kts | 24° |
| 2026-04-25 15:11 | 32.36822 | -80.82124 | 36971 ft | 432 kts | 24° |
| 2026-04-25 15:12 | 32.44954 | -80.77538 | 36973 ft | 432 kts | 24° |
| 2026-04-25 15:12 | 32.49461 | -80.74990 | 36975 ft | 432 kts | 24° |
| 2026-04-25 15:13 | 32.58490 | -80.69878 | 36974 ft | 432 kts | 24° |
| 2026-04-25 15:14 | 32.63918 | -80.66808 | 36969 ft | 433 kts | 24° |
| 2026-04-25 15:14 | 32.69351 | -80.63729 | 36969 ft | 433 kts | 24° |
| 2026-04-25 15:15 | 32.74774 | -80.60613 | 36976 ft | 433 kts | 24° |
| 2026-04-25 15:15 | 32.80159 | -80.57396 | 36979 ft | 433 kts | 25° |
| 2026-04-25 15:16 | 32.85510 | -80.54176 | 36980 ft | 434 kts | 25° |
| 2026-04-25 15:16 | 32.93602 | -80.49356 | 36977 ft | 434 kts | 25° |
| 2026-04-25 15:17 | 33.01713 | -80.44533 | 36950 ft | 435 kts | 25° |
| 2026-04-25 15:18 | 33.07119 | -80.41304 | 36947 ft | 435 kts | 25° |
| 2026-04-25 15:18 | 33.15192 | -80.36457 | 36944 ft | 435 kts | 25° |
| 2026-04-25 15:19 | 33.19693 | -80.33760 | 36944 ft | 436 kts | 25° |
| 2026-04-25 15:19 | 33.26033 | -80.29961 | 36946 ft | 436 kts | 25° |
| 2026-04-25 15:20 | 33.31453 | -80.26703 | 36953 ft | 436 kts | 25° |
| 2026-04-25 15:20 | 33.36872 | -80.23434 | 36954 ft | 436 kts | 25° |
| 2026-04-25 15:21 | 33.42263 | -80.20183 | 36955 ft | 437 kts | 25° |
| 2026-04-25 15:21 | 33.47689 | -80.16913 | 36961 ft | 437 kts | 25° |
| 2026-04-25 15:22 | 33.53128 | -80.13627 | 36964 ft | 438 kts | 25° |
| 2026-04-25 15:22 | 33.58570 | -80.10333 | 36964 ft | 438 kts | 25° |
| 2026-04-25 15:23 | 33.64004 | -80.07029 | 36962 ft | 438 kts | 25° |
| 2026-04-25 15:23 | 33.69448 | -80.03718 | 36962 ft | 439 kts | 25° |
| 2026-04-25 15:24 | 33.74854 | -80.00429 | 36961 ft | 439 kts | 25° |
| 2026-04-25 15:24 | 33.79388 | -79.97671 | 36962 ft | 439 kts | 25° |
| 2026-04-25 15:25 | 33.85763 | -79.93789 | 36954 ft | 440 kts | 25° |
| 2026-04-25 15:25 | 33.91221 | -79.90462 | 36949 ft | 440 kts | 25° |
| 2026-04-25 15:26 | 33.96678 | -79.87124 | 36947 ft | 440 kts | 25° |
| 2026-04-25 15:26 | 34.02104 | -79.83802 | 36950 ft | 441 kts | 25° |
| 2026-04-25 15:27 | 34.07568 | -79.80442 | 36957 ft | 441 kts | 25° |
| 2026-04-25 15:28 | 34.15780 | -79.75407 | 36964 ft | 441 kts | 25° |
| 2026-04-25 15:28 | 34.21256 | -79.72040 | 36967 ft | 442 kts | 25° |
| 2026-04-25 15:29 | 34.26697 | -79.68682 | 36965 ft | 442 kts | 25° |
| 2026-04-25 15:29 | 34.32175 | -79.65302 | 36958 ft | 442 kts | 25° |
| 2026-04-25 15:30 | 34.37659 | -79.61911 | 36953 ft | 443 kts | 25° |
| 2026-04-25 15:30 | 34.43146 | -79.58514 | 36949 ft | 443 kts | 25° |
| 2026-04-25 15:31 | 34.48637 | -79.55112 | 36947 ft | 443 kts | 25° |
| 2026-04-25 15:31 | 34.54090 | -79.51726 | 36950 ft | 444 kts | 25° |
| 2026-04-25 15:32 | 34.59547 | -79.48221 | 36944 ft | 444 kts | 27° |
| 2026-04-25 15:32 | 34.64937 | -79.44546 | 36949 ft | 444 kts | 27° |
| 2026-04-25 15:33 | 34.70444 | -79.41201 | 36950 ft | 441 kts | 16° |
| 2026-04-25 15:33 | 34.73407 | -79.40281 | 36951 ft | 438 kts | 7° |
| 2026-04-25 15:33 | 34.79414 | -79.39046 | 36946 ft | 438 kts | 7° |
| 2026-04-25 15:34 | 34.85421 | -79.37765 | 36947 ft | 439 kts | 7° |
| 2026-04-25 15:34 | 34.90384 | -79.36698 | 36943 ft | 439 kts | 7° |
| 2026-04-25 15:35 | 35.00436 | -79.34548 | 36918 ft | 440 kts | 7° |
| 2026-04-25 15:36 | 35.09487 | -79.32611 | 36917 ft | 440 kts | 7° |
| 2026-04-25 15:36 | 35.15488 | -79.31330 | 36958 ft | 441 kts | 7° |
| 2026-04-25 15:37 | 35.21532 | -79.30031 | 36960 ft | 441 kts | 7° |
| 2026-04-25 15:37 | 35.27574 | -79.28734 | 36956 ft | 441 kts | 7° |
| 2026-04-25 15:38 | 35.33619 | -79.27430 | 36954 ft | 442 kts | 7° |
| 2026-04-25 15:38 | 35.39623 | -79.26127 | 36928 ft | 429 kts | 7° |
| 2026-04-25 15:39 | 35.42500 | -79.25498 | 36674 ft | 423 kts | 7° |
| 2026-04-25 15:39 | 35.45390 | -79.24866 | 36417 ft | 421 kts | 7° |
| 2026-04-25 15:39 | 35.48271 | -79.24242 | 36165 ft | 420 kts | 7° |
| 2026-04-25 15:39 | 35.51151 | -79.23622 | 35916 ft | 421 kts | 7° |
| 2026-04-25 15:40 | 35.54041 | -79.23000 | 35667 ft | 422 kts | 7° |
| 2026-04-25 15:40 | 35.55018 | -79.22790 | 35585 ft | 422 kts | 7° |
| 2026-04-25 15:40 | 35.59831 | -79.21746 | 35180 ft | 424 kts | 7° |
| 2026-04-25 15:40 | 35.62744 | -79.21114 | 34943 ft | 425 kts | 7° |
| 2026-04-25 15:41 | 35.65656 | -79.20486 | 34702 ft | 426 kts | 7° |
| 2026-04-25 15:41 | 35.68576 | -79.19856 | 34457 ft | 427 kts | 7° |
| 2026-04-25 15:41 | 35.71453 | -79.19153 | 34220 ft | 429 kts | 13° |
| 2026-04-25 15:41 | 35.74275 | -79.17899 | 33984 ft | 434 kts | 23° |
| 2026-04-25 15:42 | 35.76902 | -79.16056 | 33721 ft | 438 kts | 33° |
| 2026-04-25 15:42 | 35.79299 | -79.13727 | 33458 ft | 440 kts | 37° |
| 2026-04-25 15:42 | 35.81659 | -79.11314 | 33195 ft | 441 kts | 37° |
| 2026-04-25 15:42 | 35.84027 | -79.08900 | 32925 ft | 442 kts | 37° |
| 2026-04-25 15:43 | 35.86391 | -79.06491 | 32670 ft | 442 kts | 37° |
| 2026-04-25 15:43 | 35.88764 | -79.04073 | 32414 ft | 442 kts | 37° |
| 2026-04-25 15:43 | 35.91110 | -79.01677 | 32164 ft | 442 kts | 37° |
| 2026-04-25 15:43 | 35.93507 | -78.99230 | 31910 ft | 443 kts | 37° |
| 2026-04-25 15:44 | 35.95845 | -78.96837 | 31663 ft | 443 kts | 37° |
| 2026-04-25 15:44 | 35.98215 | -78.94404 | 31418 ft | 443 kts | 37° |
| 2026-04-25 15:44 | 36.00583 | -78.91968 | 31173 ft | 444 kts | 37° |
| 2026-04-25 15:44 | 36.02950 | -78.89530 | 30947 ft | 444 kts | 37° |
| 2026-04-25 15:45 | 36.07693 | -78.84646 | 30902 ft | 444 kts | 37° |
| 2026-04-25 15:45 | 36.10870 | -78.81374 | 30905 ft | 444 kts | 37° |
| 2026-04-25 15:46 | 36.17194 | -78.74865 | 30908 ft | 445 kts | 37° |
| 2026-04-25 15:46 | 36.21919 | -78.69994 | 30896 ft | 445 kts | 37° |
| 2026-04-25 15:47 | 36.26673 | -78.65076 | 30904 ft | 445 kts | 37° |
| 2026-04-25 15:47 | 36.31423 | -78.60137 | 30908 ft | 446 kts | 37° |
| 2026-04-25 15:48 | 36.36163 | -78.55210 | 30763 ft | 441 kts | 37° |
| 2026-04-25 15:48 | 36.38486 | -78.52789 | 30516 ft | 432 kts | 37° |
| 2026-04-25 15:48 | 36.40824 | -78.50491 | 30278 ft | 425 kts | 30° |
| 2026-04-25 15:49 | 36.43366 | -78.48675 | 30044 ft | 418 kts | 21° |
| 2026-04-25 15:49 | 36.46026 | -78.47254 | 29782 ft | 415 kts | 19° |
| 2026-04-25 15:49 | 36.48682 | -78.45852 | 29500 ft | 414 kts | 19° |
| 2026-04-25 15:49 | 36.51286 | -78.44473 | 29221 ft | 412 kts | 20° |
| 2026-04-25 15:50 | 36.53923 | -78.43067 | 28970 ft | 411 kts | 20° |
| 2026-04-25 15:50 | 36.56540 | -78.41668 | 28866 ft | 409 kts | 20° |
| 2026-04-25 15:50 | 36.61783 | -78.38867 | 28895 ft | 410 kts | 20° |
| 2026-04-25 15:51 | 36.66139 | -78.36532 | 28898 ft | 411 kts | 20° |
| 2026-04-25 15:51 | 36.72282 | -78.33242 | 28900 ft | 411 kts | 20° |
| 2026-04-25 15:52 | 36.77503 | -78.30444 | 28898 ft | 412 kts | 20° |
| 2026-04-25 15:52 | 36.82768 | -78.27621 | 28896 ft | 412 kts | 20° |
| 2026-04-25 15:53 | 36.88035 | -78.24782 | 28892 ft | 412 kts | 20° |
| 2026-04-25 15:53 | 36.93308 | -78.21946 | 28885 ft | 413 kts | 20° |
| 2026-04-25 15:54 | 36.98588 | -78.19099 | 28890 ft | 413 kts | 20° |
| 2026-04-25 15:54 | 37.03829 | -78.16262 | 28896 ft | 414 kts | 20° |
| 2026-04-25 15:55 | 37.09109 | -78.13402 | 28892 ft | 414 kts | 20° |
| 2026-04-25 15:55 | 37.14397 | -78.10546 | 28894 ft | 414 kts | 20° |
| 2026-04-25 15:56 | 37.19680 | -78.07674 | 28894 ft | 414 kts | 20° |
| 2026-04-25 15:56 | 37.24968 | -78.04792 | 28892 ft | 414 kts | 20° |
| 2026-04-25 15:57 | 37.30223 | -78.01932 | 28893 ft | 415 kts | 20° |
| 2026-04-25 15:57 | 37.35514 | -77.99049 | 28875 ft | 415 kts | 20° |
| 2026-04-25 15:58 | 37.38176 | -77.97595 | 28017 ft | 423 kts | 20° |
| 2026-04-25 15:58 | 37.40897 | -77.96108 | 27241 ft | 428 kts | 21° |
| 2026-04-25 15:58 | 37.43622 | -77.94614 | 26682 ft | 427 kts | 21° |
| 2026-04-25 15:58 | 37.46339 | -77.93123 | 26190 ft | 425 kts | 21° |
| 2026-04-25 15:59 | 37.49041 | -77.91639 | 25729 ft | 422 kts | 21° |
| 2026-04-25 15:59 | 37.51728 | -77.90161 | 25274 ft | 420 kts | 21° |
| 2026-04-25 15:59 | 37.54360 | -77.88715 | 24851 ft | 418 kts | 21° |
| 2026-04-25 15:59 | 37.57005 | -77.87236 | 24439 ft | 415 kts | 22° |
| 2026-04-25 16:00 | 37.59637 | -77.85738 | 24035 ft | 413 kts | 22° |
| 2026-04-25 16:00 | 37.60520 | -77.85233 | 23905 ft | 413 kts | 22° |
| 2026-04-25 16:00 | 37.64842 | -77.82752 | 23262 ft | 409 kts | 22° |
| 2026-04-25 16:00 | 37.67428 | -77.81277 | 22846 ft | 406 kts | 22° |
| 2026-04-25 16:01 | 37.70005 | -77.79834 | 22427 ft | 403 kts | 21° |
| 2026-04-25 16:01 | 37.72560 | -77.78422 | 22023 ft | 400 kts | 21° |
| 2026-04-25 16:01 | 37.75071 | -77.77041 | 21616 ft | 397 kts | 21° |
| 2026-04-25 16:01 | 37.77619 | -77.75637 | 21194 ft | 394 kts | 21° |
| 2026-04-25 16:02 | 37.80087 | -77.74276 | 20802 ft | 390 kts | 21° |
| 2026-04-25 16:02 | 37.82569 | -77.72903 | 20407 ft | 387 kts | 21° |
| 2026-04-25 16:02 | 37.85024 | -77.71538 | 19999 ft | 384 kts | 21° |
| 2026-04-25 16:02 | 37.87460 | -77.70179 | 19606 ft | 381 kts | 21° |
| 2026-04-25 16:03 | 37.89877 | -77.68831 | 19189 ft | 378 kts | 21° |
| 2026-04-25 16:03 | 37.92269 | -77.67496 | 18766 ft | 375 kts | 21° |
| 2026-04-25 16:03 | 37.94642 | -77.66170 | 18356 ft | 371 kts | 21° |
| 2026-04-25 16:03 | 37.96968 | -77.64869 | 17895 ft | 368 kts | 21° |
| 2026-04-25 16:04 | 37.99299 | -77.63566 | 17424 ft | 366 kts | 21° |
| 2026-04-25 16:04 | 38.01620 | -77.62265 | 16954 ft | 363 kts | 21° |
| 2026-04-25 16:04 | 38.03924 | -77.60976 | 16469 ft | 361 kts | 21° |
| 2026-04-25 16:04 | 38.06214 | -77.59687 | 16000 ft | 359 kts | 22° |
| 2026-04-25 16:05 | 38.08465 | -77.58323 | 15537 ft | 358 kts | 23° |
| 2026-04-25 16:05 | 38.10680 | -77.56909 | 15096 ft | 356 kts | 24° |
| 2026-04-25 16:05 | 38.15062 | -77.54054 | 14222 ft | 352 kts | 24° |
| 2026-04-25 16:06 | 38.17230 | -77.52648 | 13977 ft | 344 kts | 24° |
| 2026-04-25 16:06 | 38.19299 | -77.51306 | 13857 ft | 333 kts | 24° |
| 2026-04-25 16:06 | 38.21335 | -77.49993 | 13674 ft | 325 kts | 24° |
| 2026-04-25 16:06 | 38.23345 | -77.48716 | 13334 ft | 321 kts | 22° |
| 2026-04-25 16:07 | 38.25442 | -77.47810 | 12954 ft | 317 kts | 12° |
| 2026-04-25 16:07 | 38.26159 | -77.47566 | 12823 ft | 317 kts | 12° |
| 2026-04-25 16:07 | 38.29683 | -77.46333 | 12193 ft | 315 kts | 13° |
| 2026-04-25 16:07 | 38.31794 | -77.45581 | 11829 ft | 314 kts | 13° |
| 2026-04-25 16:08 | 38.33896 | -77.44830 | 11486 ft | 313 kts | 13° |
| 2026-04-25 16:08 | 38.35994 | -77.44084 | 11131 ft | 312 kts | 12° |
| 2026-04-25 16:08 | 38.38103 | -77.43753 | 10891 ft | 302 kts | 357° |
| 2026-04-25 16:08 | 38.40169 | -77.43748 | 10576 ft | 301 kts | 357° |
| 2026-04-25 16:09 | 38.42261 | -77.43748 | 10240 ft | 300 kts | 357° |
| 2026-04-25 16:09 | 38.44344 | -77.43750 | 9904 ft | 299 kts | 357° |
| 2026-04-25 16:09 | 38.46423 | -77.43751 | 9563 ft | 298 kts | 357° |
| 2026-04-25 16:09 | 38.48495 | -77.43752 | 9216 ft | 297 kts | 357° |
| 2026-04-25 16:10 | 38.50553 | -77.43753 | 8913 ft | 295 kts | 357° |
| 2026-04-25 16:10 | 38.52599 | -77.43753 | 8590 ft | 293 kts | 357° |
| 2026-04-25 16:10 | 38.54632 | -77.43751 | 8280 ft | 291 kts | 357° |
| 2026-04-25 16:10 | 38.56626 | -77.43750 | 7971 ft | 289 kts | 357° |
| 2026-04-25 16:11 | 38.58635 | -77.43752 | 7659 ft | 288 kts | 357° |
| 2026-04-25 16:11 | 38.60627 | -77.43754 | 7349 ft | 286 kts | 357° |
| 2026-04-25 16:11 | 38.62611 | -77.43766 | 7044 ft | 284 kts | 354° |
| 2026-04-25 16:11 | 38.64568 | -77.43983 | 6743 ft | 282 kts | 353° |
| 2026-04-25 16:12 | 38.66521 | -77.44054 | 6448 ft | 281 kts | 358° |
| 2026-04-25 16:12 | 38.68472 | -77.44012 | 6134 ft | 279 kts | 359° |
| 2026-04-25 16:12 | 38.70402 | -77.43971 | 5870 ft | 276 kts | 358° |
| 2026-04-25 16:12 | 38.71049 | -77.43960 | 5825 ft | 271 kts | 358° |
| 2026-04-25 16:13 | 38.74012 | -77.43915 | 5612 ft | 244 kts | 358° |
| 2026-04-25 16:13 | 38.75660 | -77.43891 | 5486 ft | 228 kts | 357° |
| 2026-04-25 16:13 | 38.77171 | -77.43868 | 5361 ft | 214 kts | 357° |
| 2026-04-25 16:13 | 38.78640 | -77.43847 | 5199 ft | 208 kts | 357° |
| 2026-04-25 16:14 | 38.80072 | -77.43645 | 4951 ft | 209 kts | 19° |
| 2026-04-25 16:14 | 38.81368 | -77.42795 | 4682 ft | 210 kts | 27° |
| 2026-04-25 16:14 | 38.82609 | -77.41809 | 4423 ft | 210 kts | 29° |
| 2026-04-25 16:14 | 38.83843 | -77.40814 | 4151 ft | 209 kts | 30° |
| 2026-04-25 16:15 | 38.85081 | -77.39837 | 3875 ft | 209 kts | 30° |
| 2026-04-25 16:15 | 38.86331 | -77.38886 | 3599 ft | 209 kts | 30° |
| 2026-04-25 16:15 | 38.87582 | -77.37953 | 3354 ft | 208 kts | 34° |
| 2026-04-25 16:15 | 38.88490 | -77.36616 | 3123 ft | 200 kts | 73° |
| 2026-04-25 16:16 | 38.88558 | -77.34892 | 3022 ft | 197 kts | 111° |
| 2026-04-25 16:16 | 38.87771 | -77.33503 | 3002 ft | 196 kts | 148° |
| 2026-04-25 16:16 | 38.86481 | -77.33051 | 3011 ft | 197 kts | 185° |
| 2026-04-25 16:16 | 38.85234 | -77.33732 | 3009 ft | 200 kts | 222° |
| 2026-04-25 16:17 | 38.84556 | -77.35290 | 3005 ft | 207 kts | 259° |
| 2026-04-25 16:17 | 38.84741 | -77.37106 | 3007 ft | 210 kts | 296° |
| 2026-04-25 16:17 | 38.85725 | -77.38442 | 2999 ft | 208 kts | 333° |
| 2026-04-25 16:17 | 38.87096 | -77.38880 | 3021 ft | 207 kts | 355° |
| 2026-04-25 16:18 | 38.88533 | -77.38986 | 3011 ft | 206 kts | 359° |
| 2026-04-25 16:18 | 38.89018 | -77.39007 | 3009 ft | 207 kts | 359° |
| 2026-04-25 16:18 | 38.91463 | -77.39094 | 3005 ft | 214 kts | 359° |
| 2026-04-25 16:18 | 38.92953 | -77.39140 | 3008 ft | 214 kts | 359° |
| 2026-04-25 16:19 | 38.94444 | -77.39186 | 3007 ft | 214 kts | 359° |
| 2026-04-25 16:19 | 38.95934 | -77.39232 | 3006 ft | 215 kts | 359° |
| 2026-04-25 16:19 | 38.97430 | -77.39273 | 3013 ft | 215 kts | 359° |
| 2026-04-25 16:20 | 39.00462 | -77.39345 | 3010 ft | 223 kts | 359° |
| 2026-04-25 16:20 | 39.02018 | -77.39389 | 3007 ft | 225 kts | 359° |
| 2026-04-25 16:20 | 39.05127 | -77.39470 | 3009 ft | 223 kts | 359° |
| 2026-04-25 16:21 | 39.06656 | -77.39509 | 3009 ft | 219 kts | 359° |
| 2026-04-25 16:21 | 39.08172 | -77.39557 | 3014 ft | 218 kts | 359° |
| 2026-04-25 16:21 | 39.09684 | -77.39600 | 3020 ft | 217 kts | 359° |
| 2026-04-25 16:21 | 39.11187 | -77.39641 | 3016 ft | 216 kts | 360° |
| 2026-04-25 16:22 | 39.11761 | -77.39653 | 3016 ft | 216 kts | 1° |
| 2026-04-25 16:22 | 39.13268 | -77.39646 | 3018 ft | 217 kts | 360° |
| 2026-04-25 16:22 | 39.14735 | -77.39997 | 2929 ft | 214 kts | 333° |
| 2026-04-25 16:22 | 39.15798 | -77.41243 | 2749 ft | 207 kts | 296° |
| 2026-04-25 16:23 | 39.16072 | -77.42983 | 2523 ft | 202 kts | 259° |
| 2026-04-25 16:23 | 39.15484 | -77.44575 | 2226 ft | 198 kts | 221° |
| 2026-04-25 16:23 | 39.14283 | -77.45313 | 2075 ft | 193 kts | 181° |
| 2026-04-25 16:23 | 39.12995 | -77.44972 | 2020 ft | 191 kts | 154° |
| 2026-04-25 16:24 | 39.11795 | -77.44217 | 2014 ft | 192 kts | 150° |
| 2026-04-25 16:24 | 39.10591 | -77.43483 | 2047 ft | 193 kts | 164° |
| 2026-04-25 16:24 | 39.09260 | -77.43387 | 2015 ft | 191 kts | 179° |
| 2026-04-25 16:24 | 39.07994 | -77.43411 | 2004 ft | 173 kts | 178° |
| 2026-04-25 16:25 | 39.06869 | -77.43429 | 1998 ft | 156 kts | 178° |
| 2026-04-25 16:25 | 39.06505 | -77.43435 | 2001 ft | 154 kts | 178° |
| 2026-04-25 16:25 | 39.04757 | -77.43460 | 2025 ft | 148 kts | 178° |
| 2026-04-25 16:25 | 39.03741 | -77.43475 | 1942 ft | 146 kts | 178° |
| 2026-04-25 16:26 | 39.02734 | -77.43490 | 1786 ft | 144 kts | 178° |
| 2026-04-25 16:26 | 39.01730 | -77.43505 | 1595 ft | 144 kts | 178° |
| 2026-04-25 16:26 | 39.00722 | -77.43520 | 1414 ft | 145 kts | 178° |
| 2026-04-25 16:26 | 38.99716 | -77.43535 | 1201 ft | 145 kts | 178° |
| 2026-04-25 16:27 | 38.98715 | -77.43550 | 986 ft | 142 kts | 178° |
| 2026-04-25 16:27 | 38.97733 | -77.43567 | 752 ft | 140 kts | 178° |
| 2026-04-25 16:27 | 38.96779 | -77.43601 | 592 ft | 139 kts | 177° |
| 2026-04-25 16:27 | 38.95809 | -77.43603 | 390 ft | 138 kts | 175° |
| 2026-04-25 16:28 | 38.94879 | -77.43597 | 305 ft | 117 kts | 178° |
| 2026-04-25 16:28 | 38.94368 | -77.43614 | 311 ft | 30 kts | 182° |
| 2026-04-25 16:28 | 38.94175 | -77.43619 | 311 ft | 29 kts | 181° |
| 2026-04-25 16:28 | 38.93979 | -77.43663 | 312 ft | 29 kts | 202° |
| 2026-04-25 16:29 | 38.93810 | -77.43784 | 313 ft | 23 kts | 210° |
| 2026-04-25 16:29 | 38.93781 | -77.43806 | 312 ft | 0 kts | 210° |
| 2026-04-25 16:30 | 38.93780 | -77.43807 | 312 ft | 1 kts | 210° |
| 2026-04-25 16:31 | 38.93761 | -77.43821 | 313 ft | 5 kts | 211° |
| 2026-04-25 16:31 | 38.93751 | -77.43860 | 312 ft | 6 kts | 252° |
| 2026-04-25 16:31 | 38.93739 | -77.43924 | 311 ft | 9 kts | 275° |
| 2026-04-25 16:31 | 38.93776 | -77.43984 | 311 ft | 10 kts | 341° |
| 2026-04-25 16:32 | 38.93859 | -77.43986 | 313 ft | 13 kts | 358° |
| 2026-04-25 16:32 | 38.93950 | -77.43988 | 315 ft | 13 kts | 3° |
| 2026-04-25 16:32 | 38.94042 | -77.43983 | 316 ft | 12 kts | 358° |
| 2026-04-25 16:32 | 38.94139 | -77.43981 | 314 ft | 15 kts | 2° |
| 2026-04-25 16:33 | 38.94251 | -77.43977 | 314 ft | 17 kts | 0° |
| 2026-04-25 16:33 | 38.94326 | -77.43976 | 314 ft | 11 kts | 0° |
| 2026-04-25 16:33 | 38.94361 | -77.43976 | 314 ft | 0 kts | 0° |
| 2026-04-25 16:35 | 38.94402 | -77.43993 | 313 ft | 13 kts | 313° |
| 2026-04-25 16:35 | 38.94413 | -77.44107 | 312 ft | 13 kts | 265° |
| 2026-04-25 16:35 | 38.94410 | -77.44201 | 310 ft | 2 kts | 270° |
| 2026-04-25 16:36 | 38.94409 | -77.44243 | 309 ft | 8 kts | 266° |
| 2026-04-25 16:36 | 38.94408 | -77.44270 | 309 ft | 10 kts | 269° |
| 2026-04-25 16:36 | 38.94477 | -77.44291 | 310 ft | 8 kts | 26° |
| 2026-04-25 16:36 | 38.94495 | -77.44281 | 310 ft | 0 kts | 22° |